Aviation Digital Data Service (ADDS)

Output produced by METARs form (2130 UTC 25 May 2015)
found at http://www.aviationweather.gov/adds/metars/
 
KFIG 252054Z AUTO 24009KT 10SM BKN110 28/11 A3014 RMK AO2 SLP199 T02830106 56010
KFIG 251954Z AUTO 24011G20KT 10SM FEW120 28/11 A3015 RMK AO2 SLP201 T02780111
KFIG 251854Z AUTO 21011G17KT 10SM CLR 28/12 A3016 RMK AO2 SLP204 T02780117
KFIG 251754Z AUTO 24011G19KT 10SM CLR 28/12 A3017 RMK AO2 SLP209 T02830117 10283 20150 57017
KFIG 251654Z AUTO 21011G15KT 10SM CLR 28/12 A3019 RMK AO2 SLP215 T02780122
KFIG 251554Z AUTO 20009KT 10SM CLR 26/13 A3021 RMK AO2 SLP224 T02560128
KFIG 251454Z AUTO 23009G15KT 10SM CLR 24/13 A3023 RMK AO2 SLP228 T02440128 58005
KFIG 251354Z AUTO 24006KT 10SM CLR 21/12 A3024 RMK AO2 SLP234 T02110117
KFIG 251254Z AUTO 00000KT 10SM CLR 18/11 A3024 RMK AO2 SLP236 T01780111
KFIG 251154Z AUTO 00000KT 10SM CLR 15/10 A3024 RMK AO2 SLP236 T01500100 10150 20111 51009
KFIG 251054Z AUTO 00000KT 10SM CLR 12/09 A3024 RMK AO2 SLP234 T01220094
KFIG 250954Z AUTO 00000KT 10SM CLR 12/09 A3022 RMK AO2 SLP229 T01220089
KFIG 250854Z AUTO 00000KT 10SM CLR 12/09 A3022 RMK AO2 SLP226 T01170089 55004
KFIG 250754Z AUTO 00000KT 10SM CLR 12/09 A3021 RMK AO2 SLP225 T01220094
KFIG 250654Z AUTO 04003KT 10SM CLR 12/09 A3022 RMK AO2 SLP229 T01170089
KFIG 250554Z AUTO 36004KT 10SM BKN110 14/09 A3023 RMK AO2 SLP230 T01390089 10211 20128 58007
KFIG 250454Z AUTO 35006KT 10SM SCT110 13/09 A3024 RMK AO2 SLP235 T01330094 402610028
KFIG 250354Z AUTO 35006KT 10SM BKN120 15/09 A3025 RMK AO2 SLP236 T01500089
KFIG 250254Z AUTO 35005KT 10SM BKN120 15/09 A3025 RMK AO2 SLP240 T01500094 52001
KFIG 250154Z AUTO 35005KT 10SM CLR 17/10 A3025 RMK AO2 SLP241 T01670100
KFIG 250054Z AUTO 36003KT 10SM CLR 19/09 A3025 RMK AO2 SLP241 T01940089
KFIG 242354Z AUTO 36003KT 10SM CLR 22/08 A3025 RMK AO2 SLP242 T02170083 10261 20217 56004
KFIG 242254Z AUTO 28005KT 10SM CLR 24/06 A3025 RMK AO2 SLP243 T02390056
KFIG 242154Z AUTO 24007KT 10SM CLR 24/06 A3026 RMK AO2 SLP245 T02440056
KFIG 242054Z AUTO 23006KT 10SM CLR 24/06 A3026 RMK AO2 SLP247 T02440061 56016
KFIG 241954Z AUTO 23005KT 10SM CLR 25/06 A3027 RMK AO2 SLP250 T02500056
KFIG 241854Z AUTO 22012G16KT 10SM FEW080 26/06 A3029 RMK AO2 SLP254 T02560056
KFIG 241827Z AUTO 22010KT 10SM FEW080 26/07 A3029 RMK AO2 T02610067
KFIG 241817Z AUTO VRB04KT 2SM HZ FEW080 26/06 A3030 RMK AO2 T02560061
KFIG 241754Z AUTO 24012G15KT 10SM FEW080 24/06 A3031 RMK AO2 SLP263 T02440056 10250 20067 58011
KFIG 241654Z AUTO 28008KT 10SM CLR 24/06 A3033 RMK AO2 SLP269 T02440061
KFIG 241554Z AUTO 19004KT 10SM CLR 23/06 A3034 RMK AO2 SLP273 T02330061
KFIG 241454Z AUTO 21004KT 10SM CLR 21/07 A3035 RMK AO2 SLP275 T02060072 58016
KFIG 241354Z AUTO 20006KT 10SM CLR 16/06 A3037 RMK AO2 SLP283 T01610056
KFIG 241254Z AUTO 19003KT 10SM CLR 11/05 A3039 RMK AO2 SLP291 T01060050
KFIG 241154Z AUTO 00000KT 10SM CLR 07/04 A3039 RMK AO2 SLP295 T00670039 10067 20028 53013
KFIG 241054Z AUTO 00000KT 10SM CLR 04/03 A3038 RMK AO2 SLP290 T00390028
KFIG 240954Z AUTO 00000KT 10SM CLR 03/02 A3036 RMK AO2 SLP285 T00330017